createdAt,value
2022-12-19T00:01:35.438Z,51.75
2022-12-19T00:04:07.792Z,51.55
2022-12-19T00:06:36.263Z,52.15
2022-12-19T00:09:02.984Z,53.42
2022-12-19T00:11:29.747Z,53.83
2022-12-19T00:13:56.212Z,66.50
2022-12-19T00:16:25.435Z,57.15
2022-12-19T00:18:55.252Z,54.58
2022-12-19T00:21:24.707Z,52.60
2022-12-19T00:23:52.168Z,48.47
2022-12-19T00:26:21.183Z,49.20
2022-12-19T00:28:53.593Z,50.88
2022-12-19T00:31:21.881Z,45.33
2022-12-19T00:33:49.244Z,48.72
2022-12-19T00:36:24.414Z,49.08
2022-12-19T00:38:53.077Z,49.60
2022-12-19T00:41:28.371Z,42.55
2022-12-19T00:43:58.344Z,45.47
2022-12-19T00:46:25.721Z,48.95
2022-12-19T00:48:52.250Z,53.55
2022-12-19T00:51:29.319Z,53.78
2022-12-19T00:53:56.938Z,54.67
2022-12-19T00:56:28.941Z,52.05
2022-12-19T00:58:55.802Z,53.67
2022-12-19T01:01:25.955Z,49.22
2022-12-19T01:04:26.650Z,57.65
2022-12-19T01:06:42.454Z,52.50
2022-12-19T01:09:11.509Z,53.05
2022-12-19T01:11:56.610Z,50.58
2022-12-19T01:14:23.810Z,51.40
2022-12-19T01:16:51.525Z,48.13
2022-12-19T01:19:19.178Z,52.13
2022-12-19T01:21:45.614Z,56.25
2022-12-19T01:24:12.735Z,55.63
2022-12-19T01:26:40.195Z,56.15
2022-12-19T01:29:06.628Z,54.63
2022-12-19T01:31:33.607Z,50.45
2022-12-19T01:34:02.721Z,53.45
2022-12-19T01:36:30.099Z,55.13
2022-12-19T01:38:59.892Z,56.22
2022-12-19T01:41:27.424Z,56.55
2022-12-19T01:44:00.999Z,57.80
2022-12-19T01:46:34.172Z,53.65
2022-12-19T01:49:02.554Z,59.65
2022-12-19T01:51:39.729Z,60.03
2022-12-19T01:54:10.031Z,61.00
2022-12-19T01:56:42.244Z,67.63
2022-12-19T01:59:13.957Z,63.97
2022-12-19T02:01:51.885Z,72.32
2022-12-19T02:04:23.713Z,65.72
2022-12-19T02:06:51.758Z,61.97
2022-12-19T02:09:18.860Z,61.17
2022-12-19T02:11:45.970Z,55.58
2022-12-19T02:14:13.510Z,51.63
2022-12-19T02:17:05.635Z,51.25
2022-12-19T02:19:44.289Z,44.25
2022-12-19T02:22:34.373Z,52.65
2022-12-19T02:25:17.724Z,49.17
2022-12-19T02:27:53.603Z,50.10
2022-12-19T02:30:47.958Z,45.63
2022-12-19T02:33:35.608Z,44.85
2022-12-19T02:36:10.604Z,47.10
2022-12-19T02:38:45.411Z,46.42
2022-12-19T02:41:25.913Z,45.10
2022-12-19T02:43:56.390Z,50.28
2022-12-19T02:46:28.350Z,43.22
2022-12-19T02:48:56.705Z,48.75
2022-12-19T02:51:23.072Z,45.90
2022-12-19T02:53:50.567Z,44.30
2022-12-19T02:56:28.839Z,44.35
2022-12-19T02:59:14.823Z,47.85
2022-12-19T03:02:07.256Z,43.78
2022-12-19T03:04:52.342Z,42.15
2022-12-19T03:07:37.359Z,39.70
2022-12-19T03:10:17.039Z,40.65
2022-12-19T03:12:58.086Z,43.05
2022-12-19T03:15:25.130Z,43.92
2022-12-19T03:17:57.700Z,44.30
2022-12-19T03:20:30.490Z,43.33
2022-12-19T03:22:56.857Z,43.80
2022-12-19T03:25:24.522Z,43.70
2022-12-19T03:27:53.174Z,42.97
2022-12-19T03:30:19.611Z,44.85
2022-12-19T03:32:48.037Z,42.75
2022-12-19T03:35:20.374Z,42.70
2022-12-19T03:37:49.279Z,42.08
2022-12-19T03:40:23.783Z,45.05
2022-12-19T03:43:11.674Z,45.72
2022-12-19T03:46:11.369Z,43.35
2022-12-19T03:49:07.182Z,42.47
2022-12-19T03:51:42.716Z,42.45
2022-12-19T03:54:15.722Z,40.72
2022-12-19T03:56:57.947Z,42.83
2022-12-19T03:59:36.173Z,42.75
2022-12-19T04:02:04.309Z,46.92
2022-12-19T04:04:35.902Z,42.72
2022-12-19T04:07:03.905Z,42.10
2022-12-19T04:09:30.892Z,41.28
2022-12-19T04:12:03.331Z,41.63
2022-12-19T04:14:35.733Z,44.93
2022-12-19T04:17:08.295Z,46.88
2022-12-19T04:19:43.819Z,44.72
2022-12-19T04:22:20.967Z,53.50
2022-12-19T04:24:49.937Z,50.63
2022-12-19T04:27:17.499Z,46.58
2022-12-19T04:29:44.350Z,49.90
2022-12-19T04:32:11.873Z,51.42
2022-12-19T04:34:42.721Z,48.75
2022-12-19T04:37:10.771Z,49.15
2022-12-19T04:39:37.214Z,49.35
2022-12-19T04:42:03.784Z,46.92
2022-12-19T04:44:30.564Z,48.05
2022-12-19T04:46:57.017Z,47.85
2022-12-19T04:49:23.537Z,55.78
2022-12-19T04:51:50.889Z,56.25
2022-12-19T04:54:17.377Z,52.85
2022-12-19T04:56:43.755Z,56.58
2022-12-19T04:59:10.674Z,60.35
2022-12-19T05:01:37.151Z,54.03
2022-12-19T05:04:04.876Z,56.35
2022-12-19T05:06:31.780Z,55.60
2022-12-19T05:08:58.678Z,54.00
2022-12-19T05:11:25.064Z,55.47
2022-12-19T05:13:51.617Z,58.72
2022-12-19T05:16:18.388Z,59.63
2022-12-19T05:18:44.891Z,53.38
2022-12-19T05:21:12.711Z,60.28
2022-12-19T05:23:39.249Z,56.53
2022-12-19T05:26:06.847Z,53.72
2022-12-19T05:28:34.448Z,58.15
2022-12-19T05:31:05.288Z,60.08
2022-12-19T05:33:31.692Z,59.33
2022-12-19T05:35:58.058Z,58.92
2022-12-19T05:38:25.717Z,62.28
2022-12-19T05:40:52.185Z,62.22
2022-12-19T05:43:18.623Z,65.18
2022-12-19T05:45:45.049Z,65.43
2022-12-19T05:48:11.464Z,63.72
2022-12-19T05:50:37.853Z,63.83
2022-12-19T05:53:09.108Z,65.53
2022-12-19T05:55:35.529Z,62.03
2022-12-19T05:58:01.903Z,57.63
2022-12-19T06:00:28.315Z,64.32
2022-12-19T06:02:54.943Z,58.33
2022-12-19T06:05:21.423Z,61.00
2022-12-19T06:07:47.918Z,61.97
2022-12-19T06:10:14.421Z,63.47
2022-12-19T06:12:40.853Z,59.58
2022-12-19T06:15:07.883Z,61.83
2022-12-19T06:17:34.658Z,64.18
2022-12-19T06:20:01.038Z,59.97
2022-12-19T06:22:27.441Z,67.18
2022-12-19T06:24:53.795Z,68.82
2022-12-19T06:27:20.200Z,61.42
2022-12-19T06:29:46.593Z,58.45
2022-12-19T06:32:13.194Z,66.03
2022-12-19T06:35:03.205Z,72.00
2022-12-19T06:37:26.166Z,66.57
2022-12-19T06:39:52.531Z,69.10
2022-12-19T06:42:25.508Z,71.07
2022-12-19T06:44:54.912Z,65.53
2022-12-19T06:47:23.477Z,69.40
2022-12-19T06:49:50.161Z,72.38
2022-12-19T06:52:17.373Z,69.97
2022-12-19T06:54:43.998Z,64.60
2022-12-19T06:57:10.483Z,63.63
2022-12-19T06:59:36.897Z,69.47
2022-12-19T07:02:17.301Z,76.15
2022-12-19T07:04:49.395Z,67.93
2022-12-19T07:07:16.412Z,67.90
2022-12-19T07:09:42.823Z,63.38
2022-12-19T07:12:09.557Z,68.35
2022-12-19T07:14:35.998Z,68.07
2022-12-19T07:17:03.282Z,62.85
2022-12-19T07:19:31.117Z,64.88
2022-12-19T07:21:59.290Z,61.78
2022-12-19T07:24:25.873Z,65.03
2022-12-19T07:26:52.259Z,59.42
2022-12-19T07:29:18.910Z,63.55
2022-12-19T07:31:45.300Z,64.18
2022-12-19T07:34:11.899Z,70.80
2022-12-19T07:36:38.335Z,65.82
2022-12-19T07:39:04.950Z,64.07
2022-12-19T07:41:31.411Z,61.38
2022-12-19T07:43:58.173Z,63.05
2022-12-19T07:46:24.548Z,65.75
2022-12-19T07:48:50.927Z,71.45
2022-12-19T07:51:17.346Z,66.00
2022-12-19T07:53:43.794Z,71.45
2022-12-19T07:56:10.149Z,62.20
2022-12-19T07:58:36.972Z,60.75
2022-12-19T08:01:03.487Z,60.15
2022-12-19T08:03:29.911Z,63.50
2022-12-19T08:06:01.012Z,55.90
2022-12-19T08:08:28.224Z,57.45
2022-12-19T08:10:54.881Z,60.65
2022-12-19T08:13:21.321Z,53.95
2022-12-19T08:15:47.798Z,63.17
2022-12-19T08:18:14.391Z,54.08
2022-12-19T08:20:45.279Z,55.75
2022-12-19T08:23:11.677Z,59.72
2022-12-19T08:25:38.054Z,58.47
2022-12-19T08:28:04.636Z,60.47
2022-12-19T08:30:31.046Z,59.17
2022-12-19T08:32:57.637Z,58.05
2022-12-19T08:35:24.049Z,57.65
2022-12-19T08:37:50.426Z,58.78
2022-12-19T08:40:16.952Z,59.22
2022-12-19T08:42:43.338Z,58.38
2022-12-19T08:45:09.852Z,62.40
2022-12-19T08:47:36.250Z,57.30
2022-12-19T08:50:02.718Z,55.45
2022-12-19T08:52:29.112Z,57.45
2022-12-19T08:54:55.750Z,56.47
2022-12-19T08:57:22.154Z,57.10
2022-12-19T08:59:48.520Z,56.13
2022-12-19T09:02:16.167Z,55.20
2022-12-19T09:05:57.575Z,54.10
2022-12-19T09:07:30.695Z,51.42
2022-12-19T09:09:57.053Z,57.08
2022-12-19T09:12:23.440Z,58.08
2022-12-19T09:14:49.962Z,52.15
2022-12-19T09:17:17.018Z,52.15
2022-12-19T09:19:47.057Z,52.60
2022-12-19T09:22:14.896Z,56.22
2022-12-19T09:24:41.382Z,50.72
2022-12-19T09:27:07.814Z,55.85
2022-12-19T09:29:35.746Z,51.70
2022-12-19T09:32:02.539Z,53.55
2022-12-19T09:34:36.839Z,47.97
2022-12-19T09:37:15.779Z,48.08
2022-12-19T09:39:43.106Z,46.00
2022-12-19T09:42:41.128Z,48.72
2022-12-19T09:45:25.655Z,50.92
2022-12-19T09:47:59.031Z,49.67
2022-12-19T09:50:47.838Z,51.10
2022-12-19T09:53:36.043Z,51.47
2022-12-19T09:56:02.855Z,48.08
2022-12-19T09:58:37.318Z,51.22
2022-12-19T10:01:13.824Z,50.83
2022-12-19T10:03:45.158Z,48.83
2022-12-19T10:07:06.363Z,48.03
2022-12-19T10:12:33.160Z,48.58
2022-12-19T10:12:47.891Z,44.67
2022-12-19T10:15:44.237Z,41.85
2022-12-19T10:18:35.926Z,54.38
2022-12-19T10:21:07.754Z,45.15
2022-12-19T10:23:51.087Z,48.05
2022-12-19T10:26:22.369Z,43.97
2022-12-19T10:29:25.873Z,46.90
2022-12-19T10:32:18.564Z,48.10
2022-12-19T10:34:47.213Z,43.67
2022-12-19T10:37:27.732Z,47.45
2022-12-19T10:40:24.757Z,46.22
2022-12-19T10:43:17.211Z,49.33
2022-12-19T10:45:57.598Z,45.95
2022-12-19T10:48:30.373Z,44.30
2022-12-19T10:50:57.768Z,45.17
2022-12-19T10:53:31.325Z,44.40
2022-12-19T10:56:11.267Z,45.88
2022-12-19T10:58:41.786Z,43.50
2022-12-19T11:01:14.282Z,37.70
2022-12-19T11:03:46.581Z,39.43
2022-12-19T11:06:52.896Z,36.40
2022-12-19T11:09:27.613Z,38.97
2022-12-19T11:15:34.463Z,37.88
2022-12-19T11:19:54.950Z,39.50
2022-12-19T11:27:16.173Z,41.05
2022-12-19T11:29:26.684Z,39.40
2022-12-19T11:30:39.545Z,37.50
2022-12-19T11:30:48.669Z,35.53
2022-12-19T11:32:41.556Z,36.25
2022-12-19T11:35:24.342Z,37.40
2022-12-19T11:37:58.179Z,36.05
2022-12-19T11:40:43.115Z,32.92
2022-12-19T11:43:46.226Z,37.85
2022-12-19T11:46:22.140Z,34.30
2022-12-19T11:48:58.664Z,36.70
2022-12-19T11:51:33.362Z,33.75
2022-12-19T11:54:13.868Z,34.38
2022-12-19T11:56:40.371Z,32.03
2022-12-19T11:59:18.858Z,34.92
2022-12-19T12:01:51.271Z,37.63
2022-12-19T12:04:29.533Z,38.20
2022-12-19T12:06:57.805Z,31.67
2022-12-19T12:11:40.906Z,33.65
2022-12-19T12:15:02.244Z,32.00
2022-12-19T12:30:59.355Z,34.17
2022-12-19T12:31:05.780Z,33.28
2022-12-19T12:31:19.471Z,32.50
2022-12-19T12:31:47.564Z,33.08
2022-12-19T12:31:49.435Z,37.00
2022-12-19T12:35:22.364Z,33.00
2022-12-19T12:38:27.531Z,32.95
2022-12-19T12:41:06.455Z,28.30
2022-12-19T12:43:55.903Z,29.52
2022-12-19T12:46:27.580Z,29.35
2022-12-19T12:49:02.933Z,34.50
2022-12-19T12:51:32.804Z,32.47
2022-12-19T12:54:07.473Z,30.27
2022-12-19T12:56:36.345Z,33.90
2022-12-19T12:59:21.702Z,31.52
2022-12-19T13:01:53.659Z,28.20
2022-12-19T13:04:30.129Z,27.48
2022-12-19T13:07:28.496Z,27.33
2022-12-19T13:10:19.100Z,31.15
2022-12-19T13:13:16.514Z,29.88
2022-12-19T13:15:45.177Z,25.65
2022-12-19T13:18:32.079Z,28.20
2022-12-19T13:21:00.439Z,27.98
2022-12-19T13:23:29.787Z,28.35
2022-12-19T13:25:56.982Z,26.25
2022-12-19T13:28:23.405Z,23.67
2022-12-19T13:31:16.594Z,23.33
2022-12-19T13:33:48.254Z,24.63
2022-12-19T13:39:48.574Z,22.75
2022-12-19T13:40:10.965Z,24.85
2022-12-19T13:43:10.566Z,24.42
2022-12-19T13:45:41.224Z,21.27
2022-12-19T13:48:15.375Z,19.45
2022-12-19T13:50:43.321Z,20.70
2022-12-19T13:53:16.360Z,25.70
2022-12-19T13:55:42.763Z,20.60
2022-12-19T13:58:32.338Z,22.38
2022-12-19T14:01:08.402Z,20.67
2022-12-19T14:03:50.689Z,20.33
2022-12-19T14:06:30.943Z,20.27
2022-12-19T14:09:58.747Z,23.60
2022-12-19T14:12:21.221Z,19.73
2022-12-19T14:15:13.138Z,20.13
2022-12-19T14:17:40.238Z,25.30
2022-12-19T14:20:48.953Z,23.25
2022-12-19T14:23:05.606Z,18.77
2022-12-19T14:28:19.051Z,20.20
2022-12-19T14:28:46.438Z,18.50
2022-12-19T14:31:19.219Z,22.00
2022-12-19T14:34:42.947Z,19.40
2022-12-19T14:36:39.924Z,19.42
2022-12-19T14:39:23.170Z,21.85
2022-12-19T14:42:19.171Z,18.60
2022-12-19T14:52:51.749Z,22.73
2022-12-19T14:54:02.817Z,18.48
2022-12-19T14:54:03.814Z,19.40
2022-12-19T14:54:24.628Z,21.85
2022-12-19T14:59:17.288Z,18.20
2022-12-19T15:01:52.786Z,20.42
2022-12-19T15:04:50.817Z,18.17
2022-12-19T15:07:19.280Z,19.08
2022-12-19T15:11:02.900Z,21.98
2022-12-19T15:14:53.853Z,16.63
2022-12-19T15:16:25.212Z,17.30
2022-12-19T15:18:56.242Z,16.80
2022-12-19T15:21:22.691Z,17.90
2022-12-19T15:23:49.160Z,17.80
2022-12-19T15:26:27.790Z,19.08
2022-12-19T15:28:56.208Z,17.10
2022-12-19T15:31:29.708Z,18.90
2022-12-19T15:36:43.316Z,19.08
2022-12-19T15:39:09.868Z,17.35
2022-12-19T15:41:36.594Z,18.13
2022-12-19T15:44:35.561Z,18.38
2022-12-19T15:47:04.904Z,16.88
2022-12-19T15:49:32.750Z,16.77
2022-12-19T15:51:59.184Z,16.10
2022-12-19T15:57:35.874Z,17.15
2022-12-19T16:00:07.627Z,17.58
2022-12-19T16:03:22.659Z,16.25
2022-12-19T16:05:22.797Z,17.08
2022-12-19T16:07:49.732Z,19.83
2022-12-19T16:10:16.326Z,16.70
2022-12-19T16:12:55.318Z,22.58
2022-12-19T16:15:29.338Z,15.80
2022-12-19T16:17:57.667Z,15.77
2022-12-19T16:20:30.424Z,14.80
2022-12-19T16:22:57.746Z,15.98
2022-12-19T16:25:31.897Z,15.52
2022-12-19T16:27:59.711Z,16.67
2022-12-19T16:30:30.843Z,20.20
2022-12-19T16:32:57.458Z,16.15
2022-12-19T16:35:55.111Z,15.48
2022-12-19T16:38:12.953Z,15.20
2022-12-19T16:40:39.565Z,13.00
2022-12-19T16:43:13.624Z,13.40
2022-12-19T16:45:40.076Z,13.90
2022-12-19T16:48:22.326Z,14.85
2022-12-19T16:50:49.383Z,17.75
2022-12-19T16:53:16.755Z,17.73
2022-12-19T16:55:44.222Z,17.98
2022-12-19T16:58:18.712Z,16.77
2022-12-19T17:00:45.512Z,16.90
2022-12-19T17:03:41.331Z,16.77
2022-12-19T17:06:17.027Z,16.40
2022-12-19T17:08:43.886Z,15.93
2022-12-19T17:11:20.747Z,15.85
2022-12-19T17:14:02.309Z,15.35
2022-12-19T17:16:30.931Z,15.60
2022-12-19T17:18:58.089Z,12.80
2022-12-19T17:21:24.546Z,14.57
2022-12-19T17:23:51.645Z,14.45
2022-12-19T17:26:18.610Z,14.93
2022-12-19T17:28:48.003Z,15.57
2022-12-19T17:31:27.218Z,14.00
2022-12-19T17:33:58.385Z,12.20
2022-12-19T17:36:37.135Z,12.95
2022-12-19T17:39:21.438Z,16.25
2022-12-19T17:41:49.372Z,16.75
2022-12-19T17:44:16.137Z,15.10
2022-12-19T17:46:43.586Z,13.43
2022-12-19T17:49:31.545Z,14.18
2022-12-19T17:51:59.621Z,14.98
2022-12-19T17:54:27.180Z,14.18
2022-12-19T17:56:53.807Z,13.23
2022-12-19T17:59:20.842Z,13.60
2022-12-19T18:01:47.679Z,14.75
2022-12-19T18:04:18.802Z,14.93
2022-12-19T18:06:45.951Z,13.27
2022-12-19T18:09:19.717Z,12.38
2022-12-19T18:11:47.150Z,13.32
2022-12-19T18:14:14.336Z,13.50
2022-12-19T18:16:41.321Z,16.02
2022-12-19T18:19:17.329Z,15.45
2022-12-19T18:21:43.784Z,15.95
2022-12-19T18:24:12.063Z,13.80
2022-12-19T18:26:38.531Z,14.98
2022-12-19T18:29:04.921Z,14.73
2022-12-19T18:31:31.434Z,13.43
2022-12-19T18:34:07.096Z,14.55
2022-12-19T18:36:40.162Z,14.07
2022-12-19T18:39:22.668Z,15.00
2022-12-19T18:41:50.139Z,13.05
2022-12-19T18:44:17.172Z,15.60
2022-12-19T18:46:43.809Z,14.00
2022-12-19T18:49:13.016Z,15.88
2022-12-19T18:51:39.701Z,17.52
2022-12-19T18:54:20.492Z,13.77
2022-12-19T18:56:47.416Z,13.52
2022-12-19T18:59:13.890Z,12.68
2022-12-19T19:01:46.440Z,14.55
2022-12-19T19:04:17.382Z,13.45
2022-12-19T19:06:50.860Z,13.50
2022-12-19T19:09:19.489Z,14.77
2022-12-19T19:11:56.652Z,13.05
2022-12-19T19:14:23.182Z,15.88
2022-12-19T19:16:49.620Z,13.88
2022-12-19T19:19:18.134Z,14.38
2022-12-19T19:21:44.939Z,12.52
2022-12-19T19:24:20.933Z,13.30
2022-12-19T19:26:47.400Z,13.50
2022-12-19T19:29:14.809Z,13.73
2022-12-19T19:31:45.750Z,11.90
2022-12-19T19:34:24.207Z,15.05
2022-12-19T19:36:54.660Z,17.08
2022-12-19T19:39:23.059Z,13.15
2022-12-19T19:41:49.518Z,12.55
2022-12-19T19:44:15.895Z,14.32
2022-12-19T19:46:42.330Z,13.75
2022-12-19T19:49:09.271Z,15.73
2022-12-19T19:51:36.045Z,11.73
2022-12-19T19:54:02.482Z,10.73
2022-12-19T19:56:29.005Z,14.40
2022-12-19T19:58:59.331Z,14.00
2022-12-19T20:01:26.285Z,13.45
2022-12-19T20:03:52.910Z,12.02
2022-12-19T20:06:19.649Z,19.17
2022-12-19T20:08:46.175Z,12.43
2022-12-19T20:11:13.558Z,12.20
2022-12-19T20:13:40.006Z,13.25
2022-12-19T20:16:09.943Z,11.98
2022-12-19T20:18:37.883Z,11.70
2022-12-19T20:21:12.312Z,11.60
2022-12-19T20:23:41.355Z,10.95
2022-12-19T20:26:07.913Z,14.13
2022-12-19T20:28:34.804Z,13.77
2022-12-19T20:31:01.321Z,11.23
2022-12-19T20:33:27.822Z,10.18
2022-12-19T20:35:58.750Z,11.20
2022-12-19T20:38:25.158Z,11.10
2022-12-19T20:40:52.883Z,13.63
2022-12-19T20:43:19.777Z,11.32
2022-12-19T20:45:46.374Z,12.30
2022-12-19T20:48:12.832Z,10.77
2022-12-19T20:50:43.177Z,11.65
2022-12-19T20:53:09.873Z,11.50
2022-12-19T20:55:36.270Z,10.57
2022-12-19T20:58:02.682Z,9.63
2022-12-19T21:00:29.104Z,10.77
2022-12-19T21:03:26.555Z,11.75
2022-12-19T21:05:42.056Z,11.23
2022-12-19T21:08:08.434Z,10.35
2022-12-19T21:10:35.241Z,10.57
2022-12-19T21:13:01.678Z,10.73
2022-12-19T21:15:28.141Z,10.40
2022-12-19T21:17:54.693Z,10.35
2022-12-19T21:20:21.077Z,10.40
2022-12-19T21:22:47.467Z,9.98
2022-12-19T21:25:13.962Z,8.30
2022-12-19T21:27:40.731Z,11.07
2022-12-19T21:30:07.830Z,12.63
2022-12-19T21:32:34.506Z,9.93
2022-12-19T21:35:00.919Z,12.52
2022-12-19T21:37:27.286Z,8.73
2022-12-19T21:39:53.811Z,12.98
2022-12-19T21:42:20.203Z,10.20
2022-12-19T21:44:46.881Z,10.63
2022-12-19T21:47:13.317Z,10.60
2022-12-19T21:49:40.206Z,10.43
2022-12-19T21:52:06.648Z,7.50
2022-12-19T21:54:33.041Z,12.40
2022-12-19T21:56:59.429Z,13.18
2022-12-19T21:59:25.856Z,10.93
2022-12-19T22:01:52.496Z,11.73
2022-12-19T22:04:21.816Z,11.05
2022-12-19T22:06:49.997Z,10.13
2022-12-19T22:09:19.921Z,10.23
2022-12-19T22:11:46.644Z,9.95
2022-12-19T22:14:14.580Z,10.90
2022-12-19T22:16:41.613Z,9.15
2022-12-19T22:19:15.601Z,9.57
2022-12-19T22:21:42.794Z,8.45
2022-12-19T22:24:11.417Z,9.85
2022-12-19T22:26:38.191Z,8.75
2022-12-19T22:29:09.700Z,8.77
2022-12-19T22:31:38.081Z,7.22
2022-12-19T22:34:07.139Z,7.35
2022-12-19T22:36:35.935Z,8.13
2022-12-19T22:39:04.786Z,7.22
2022-12-19T22:41:32.767Z,7.00
2022-12-19T22:43:59.205Z,8.13
2022-12-19T22:46:28.650Z,8.25
2022-12-19T22:48:57.806Z,7.65
2022-12-19T22:51:25.458Z,8.02
2022-12-19T22:53:52.170Z,8.38
2022-12-19T22:56:20.567Z,6.63
2022-12-19T22:58:49.380Z,9.82
2022-12-19T23:01:29.372Z,9.02
2022-12-19T23:03:58.737Z,7.47
2022-12-19T23:06:27.364Z,6.85
2022-12-19T23:08:54.023Z,7.93
2022-12-19T23:11:24.985Z,6.40
2022-12-19T23:13:51.558Z,8.25
2022-12-19T23:16:18.618Z,7.93
2022-12-19T23:18:46.262Z,5.43
2022-12-19T23:21:21.796Z,6.82
2022-12-19T23:23:50.302Z,6.47
2022-12-19T23:26:24.713Z,6.35
2022-12-19T23:28:53.799Z,9.13
2022-12-19T23:31:20.274Z,7.90
2022-12-19T23:33:46.855Z,7.60
2022-12-19T23:36:13.897Z,4.97
2022-12-19T23:38:42.040Z,8.98
2022-12-19T23:41:10.916Z,8.20
2022-12-19T23:43:38.289Z,5.68
2022-12-19T23:46:06.935Z,5.90
2022-12-19T23:48:33.733Z,5.35
2022-12-19T23:51:01.697Z,5.90
2022-12-19T23:53:28.201Z,5.22
2022-12-19T23:55:54.664Z,7.10
2022-12-19T23:58:24.665Z,4.70
